sensor_id;sensor_type;location;lat;lon;timestamp;P1;durP1;ratioP1;P2;durP2;ratioP2
8857;SDS011;4465;50.904;4.696;2023-06-19T00:03:03;8.00;;;4.30;;
8857;SDS011;4465;50.904;4.696;2023-06-19T00:05:29;6.55;;;3.58;;
8857;SDS011;4465;50.904;4.696;2023-06-19T00:07:55;5.68;;;3.30;;
8857;SDS011;4465;50.904;4.696;2023-06-19T00:10:21;9.82;;;3.72;;
8857;SDS011;4465;50.904;4.696;2023-06-19T00:12:47;10.57;;;4.05;;
8857;SDS011;4465;50.904;4.696;2023-06-19T00:15:13;9.85;;;4.03;;
8857;SDS011;4465;50.904;4.696;2023-06-19T00:17:41;12.73;;;3.80;;
8857;SDS011;4465;50.904;4.696;2023-06-19T00:20:09;7.93;;;3.95;;
8857;SDS011;4465;50.904;4.696;2023-06-19T00:22:39;8.57;;;3.97;;
8857;SDS011;4465;50.904;4.696;2023-06-19T00:25:08;7.43;;;3.95;;
8857;SDS011;4465;50.904;4.696;2023-06-19T00:27:34;8.95;;;3.97;;
8857;SDS011;4465;50.904;4.696;2023-06-19T00:30:04;9.68;;;4.10;;
8857;SDS011;4465;50.904;4.696;2023-06-19T00:32:33;6.68;;;3.55;;
8857;SDS011;4465;50.904;4.696;2023-06-19T00:35:14;8.00;;;3.75;;
8857;SDS011;4465;50.904;4.696;2023-06-19T00:37:41;7.40;;;3.67;;
8857;SDS011;4465;50.904;4.696;2023-06-19T00:40:19;7.75;;;3.97;;
8857;SDS011;4465;50.904;4.696;2023-06-19T00:42:51;8.07;;;4.05;;
8857;SDS011;4465;50.904;4.696;2023-06-19T00:45:17;7.10;;;3.80;;
8857;SDS011;4465;50.904;4.696;2023-06-19T00:47:46;5.68;;;3.38;;
8857;SDS011;4465;50.904;4.696;2023-06-19T00:50:12;11.65;;;3.92;;
8857;SDS011;4465;50.904;4.696;2023-06-19T00:52:40;8.95;;;4.25;;
8857;SDS011;4465;50.904;4.696;2023-06-19T00:55:07;5.95;;;3.50;;
8857;SDS011;4465;50.904;4.696;2023-06-19T00:57:34;6.03;;;3.60;;
8857;SDS011;4465;50.904;4.696;2023-06-19T01:00:01;7.37;;;3.80;;
8857;SDS011;4465;50.904;4.696;2023-06-19T01:02:30;7.40;;;3.90;;
8857;SDS011;4465;50.904;4.696;2023-06-19T01:04:56;5.18;;;3.22;;
8857;SDS011;4465;50.904;4.696;2023-06-19T01:10:11;5.53;;;3.00;;
8857;SDS011;4465;50.904;4.696;2023-06-19T01:12:42;5.30;;;3.33;;
8857;SDS011;4465;50.904;4.696;2023-06-19T01:15:16;5.63;;;3.65;;
8857;SDS011;4465;50.904;4.696;2023-06-19T01:17:50;6.88;;;3.63;;
8857;SDS011;4465;50.904;4.696;2023-06-19T01:20:16;6.40;;;3.33;;
8857;SDS011;4465;50.904;4.696;2023-06-19T01:22:43;7.23;;;4.40;;
8857;SDS011;4465;50.904;4.696;2023-06-19T01:25:11;9.13;;;3.53;;
8857;SDS011;4465;50.904;4.696;2023-06-19T01:27:40;8.20;;;3.50;;
8857;SDS011;4465;50.904;4.696;2023-06-19T01:30:12;9.77;;;3.45;;
8857;SDS011;4465;50.904;4.696;2023-06-19T01:35:23;5.75;;;3.65;;
8857;SDS011;4465;50.904;4.696;2023-06-19T01:37:53;7.82;;;3.63;;
8857;SDS011;4465;50.904;4.696;2023-06-19T01:40:19;5.03;;;2.80;;
8857;SDS011;4465;50.904;4.696;2023-06-19T01:42:50;6.72;;;3.42;;
8857;SDS011;4465;50.904;4.696;2023-06-19T01:45:19;8.55;;;3.72;;
8857;SDS011;4465;50.904;4.696;2023-06-19T01:47:46;7.85;;;3.60;;
8857;SDS011;4465;50.904;4.696;2023-06-19T01:50:14;7.30;;;3.35;;
8857;SDS011;4465;50.904;4.696;2023-06-19T01:52:40;10.32;;;3.85;;
8857;SDS011;4465;50.904;4.696;2023-06-19T01:55:06;5.18;;;3.28;;
8857;SDS011;4465;50.904;4.696;2023-06-19T01:57:37;7.60;;;4.20;;
8857;SDS011;4465;50.904;4.696;2023-06-19T02:03:44;7.03;;;3.92;;
8857;SDS011;4465;50.904;4.696;2023-06-19T02:06:12;5.60;;;3.88;;
8857;SDS011;4465;50.904;4.696;2023-06-19T02:08:38;8.15;;;3.92;;
8857;SDS011;4465;50.904;4.696;2023-06-19T02:11:11;6.45;;;3.55;;
8857;SDS011;4465;50.904;4.696;2023-06-19T02:13:37;9.60;;;3.78;;
8857;SDS011;4465;50.904;4.696;2023-06-19T02:16:03;7.18;;;3.75;;
8857;SDS011;4465;50.904;4.696;2023-06-19T02:18:29;6.90;;;3.70;;
8857;SDS011;4465;50.904;4.696;2023-06-19T02:20:55;7.78;;;3.80;;
8857;SDS011;4465;50.904;4.696;2023-06-19T02:23:21;9.02;;;3.33;;
8857;SDS011;4465;50.904;4.696;2023-06-19T02:25:47;5.72;;;3.28;;
8857;SDS011;4465;50.904;4.696;2023-06-19T02:28:13;7.80;;;3.63;;
8857;SDS011;4465;50.904;4.696;2023-06-19T02:30:39;7.43;;;3.42;;
8857;SDS011;4465;50.904;4.696;2023-06-19T02:33:04;7.75;;;3.63;;
8857;SDS011;4465;50.904;4.696;2023-06-19T02:35:30;13.45;;;3.58;;
8857;SDS011;4465;50.904;4.696;2023-06-19T02:37:56;7.05;;;3.65;;
8857;SDS011;4465;50.904;4.696;2023-06-19T02:40:23;6.82;;;3.72;;
8857;SDS011;4465;50.904;4.696;2023-06-19T02:42:49;7.53;;;3.70;;
8857;SDS011;4465;50.904;4.696;2023-06-19T02:45:14;7.35;;;3.70;;
8857;SDS011;4465;50.904;4.696;2023-06-19T02:47:41;6.70;;;3.25;;
8857;SDS011;4465;50.904;4.696;2023-06-19T02:50:08;7.97;;;4.10;;
8857;SDS011;4465;50.904;4.696;2023-06-19T02:52:36;5.63;;;3.67;;
8857;SDS011;4465;50.904;4.696;2023-06-19T02:55:04;8.48;;;3.88;;
8857;SDS011;4465;50.904;4.696;2023-06-19T02:57:32;5.55;;;3.60;;
8857;SDS011;4465;50.904;4.696;2023-06-19T03:00:00;8.30;;;3.92;;
8857;SDS011;4465;50.904;4.696;2023-06-19T03:02:26;11.15;;;3.80;;
8857;SDS011;4465;50.904;4.696;2023-06-19T03:04:54;7.95;;;3.42;;
8857;SDS011;4465;50.904;4.696;2023-06-19T03:07:20;7.65;;;3.83;;
8857;SDS011;4465;50.904;4.696;2023-06-19T03:09:48;6.97;;;3.72;;
8857;SDS011;4465;50.904;4.696;2023-06-19T03:12:14;9.15;;;3.88;;
8857;SDS011;4465;50.904;4.696;2023-06-19T03:14:40;11.00;;;4.35;;
8857;SDS011;4465;50.904;4.696;2023-06-19T03:17:06;14.48;;;5.40;;
8857;SDS011;4465;50.904;4.696;2023-06-19T03:19:34;10.60;;;4.70;;
8857;SDS011;4465;50.904;4.696;2023-06-19T03:22:02;6.25;;;3.80;;
8857;SDS011;4465;50.904;4.696;2023-06-19T03:24:28;11.63;;;4.90;;
8857;SDS011;4465;50.904;4.696;2023-06-19T03:26:54;8.85;;;4.30;;
8857;SDS011;4465;50.904;4.696;2023-06-19T03:29:20;10.05;;;4.80;;
8857;SDS011;4465;50.904;4.696;2023-06-19T03:31:51;11.10;;;5.07;;
8857;SDS011;4465;50.904;4.696;2023-06-19T03:34:19;12.48;;;5.57;;
8857;SDS011;4465;50.904;4.696;2023-06-19T03:36:45;10.48;;;5.20;;
8857;SDS011;4465;50.904;4.696;2023-06-19T03:39:13;12.13;;;5.65;;
8857;SDS011;4465;50.904;4.696;2023-06-19T03:41:39;10.45;;;6.55;;
8857;SDS011;4465;50.904;4.696;2023-06-19T03:44:07;10.07;;;5.68;;
8857;SDS011;4465;50.904;4.696;2023-06-19T03:46:33;11.50;;;6.43;;
8857;SDS011;4465;50.904;4.696;2023-06-19T03:49:01;10.80;;;6.07;;
8857;SDS011;4465;50.904;4.696;2023-06-19T03:51:30;14.18;;;6.25;;
8857;SDS011;4465;50.904;4.696;2023-06-19T03:53:58;12.57;;;7.05;;
8857;SDS011;4465;50.904;4.696;2023-06-19T03:56:24;13.70;;;7.13;;
8857;SDS011;4465;50.904;4.696;2023-06-19T03:58:52;14.07;;;6.82;;
8857;SDS011;4465;50.904;4.696;2023-06-19T04:01:18;9.70;;;6.22;;
8857;SDS011;4465;50.904;4.696;2023-06-19T04:03:44;14.02;;;6.90;;
8857;SDS011;4465;50.904;4.696;2023-06-19T04:06:10;15.35;;;6.85;;
8857;SDS011;4465;50.904;4.696;2023-06-19T04:08:36;12.32;;;6.70;;
8857;SDS011;4465;50.904;4.696;2023-06-19T04:11:02;13.23;;;6.43;;
8857;SDS011;4465;50.904;4.696;2023-06-19T04:13:28;13.05;;;6.88;;
8857;SDS011;4465;50.904;4.696;2023-06-19T04:15:53;12.15;;;7.07;;
8857;SDS011;4465;50.904;4.696;2023-06-19T04:18:19;11.50;;;7.13;;
8857;SDS011;4465;50.904;4.696;2023-06-19T04:20:45;12.38;;;6.80;;
8857;SDS011;4465;50.904;4.696;2023-06-19T04:23:11;12.98;;;7.95;;
8857;SDS011;4465;50.904;4.696;2023-06-19T04:25:38;18.92;;;9.95;;
8857;SDS011;4465;50.904;4.696;2023-06-19T04:28:04;18.85;;;10.32;;
8857;SDS011;4465;50.904;4.696;2023-06-19T04:30:30;17.98;;;10.27;;
8857;SDS011;4465;50.904;4.696;2023-06-19T04:32:59;16.83;;;10.73;;
8857;SDS011;4465;50.904;4.696;2023-06-19T04:35:25;17.23;;;11.15;;
8857;SDS011;4465;50.904;4.696;2023-06-19T04:37:52;19.23;;;11.38;;
8857;SDS011;4465;50.904;4.696;2023-06-19T04:42:47;17.73;;;10.77;;
8857;SDS011;4465;50.904;4.696;2023-06-19T04:45:13;18.02;;;10.00;;
8857;SDS011;4465;50.904;4.696;2023-06-19T04:47:41;20.58;;;9.52;;
8857;SDS011;4465;50.904;4.696;2023-06-19T04:50:09;16.55;;;9.55;;
8857;SDS011;4465;50.904;4.696;2023-06-19T04:52:35;15.15;;;8.77;;
8857;SDS011;4465;50.904;4.696;2023-06-19T04:55:04;15.50;;;8.98;;
8857;SDS011;4465;50.904;4.696;2023-06-19T04:57:35;13.82;;;7.80;;
8857;SDS011;4465;50.904;4.696;2023-06-19T05:00:05;15.23;;;7.82;;
8857;SDS011;4465;50.904;4.696;2023-06-19T05:02:37;12.60;;;7.78;;
8857;SDS011;4465;50.904;4.696;2023-06-19T05:05:04;16.08;;;7.78;;
8857;SDS011;4465;50.904;4.696;2023-06-19T05:07:30;13.60;;;7.93;;
8857;SDS011;4465;50.904;4.696;2023-06-19T05:09:56;13.00;;;7.68;;
8857;SDS011;4465;50.904;4.696;2023-06-19T05:12:25;19.65;;;7.75;;
8857;SDS011;4465;50.904;4.696;2023-06-19T05:14:51;17.45;;;8.13;;
8857;SDS011;4465;50.904;4.696;2023-06-19T05:17:17;15.98;;;7.88;;
8857;SDS011;4465;50.904;4.696;2023-06-19T05:19:43;12.35;;;7.03;;
8857;SDS011;4465;50.904;4.696;2023-06-19T05:22:09;16.40;;;8.40;;
8857;SDS011;4465;50.904;4.696;2023-06-19T05:24:34;12.40;;;7.32;;
8857;SDS011;4465;50.904;4.696;2023-06-19T05:27:05;12.23;;;7.25;;
8857;SDS011;4465;50.904;4.696;2023-06-19T05:29:33;14.27;;;6.93;;
8857;SDS011;4465;50.904;4.696;2023-06-19T05:32:00;13.30;;;7.60;;
8857;SDS011;4465;50.904;4.696;2023-06-19T05:34:29;16.15;;;7.47;;
8857;SDS011;4465;50.904;4.696;2023-06-19T05:36:55;13.27;;;7.13;;
8857;SDS011;4465;50.904;4.696;2023-06-19T05:39:21;13.30;;;8.07;;
8857;SDS011;4465;50.904;4.696;2023-06-19T05:41:47;12.70;;;8.15;;
8857;SDS011;4465;50.904;4.696;2023-06-19T05:44:12;18.48;;;8.35;;
8857;SDS011;4465;50.904;4.696;2023-06-19T05:46:42;13.55;;;8.20;;
8857;SDS011;4465;50.904;4.696;2023-06-19T05:49:10;13.65;;;8.38;;
8857;SDS011;4465;50.904;4.696;2023-06-19T05:51:36;12.40;;;7.72;;
8857;SDS011;4465;50.904;4.696;2023-06-19T05:54:02;12.77;;;7.63;;
8857;SDS011;4465;50.904;4.696;2023-06-19T05:56:31;14.40;;;7.78;;
8857;SDS011;4465;50.904;4.696;2023-06-19T06:01:25;12.90;;;7.65;;
8857;SDS011;4465;50.904;4.696;2023-06-19T06:03:53;17.95;;;8.32;;
8857;SDS011;4465;50.904;4.696;2023-06-19T06:06:23;15.48;;;8.50;;
8857;SDS011;4465;50.904;4.696;2023-06-19T06:08:49;11.32;;;7.30;;
8857;SDS011;4465;50.904;4.696;2023-06-19T06:11:16;13.25;;;7.88;;
8857;SDS011;4465;50.904;4.696;2023-06-19T06:13:42;15.55;;;7.53;;
8857;SDS011;4465;50.904;4.696;2023-06-19T06:16:11;12.93;;;6.95;;
8857;SDS011;4465;50.904;4.696;2023-06-19T06:18:37;15.75;;;8.40;;
8857;SDS011;4465;50.904;4.696;2023-06-19T06:21:03;14.77;;;7.70;;
8857;SDS011;4465;50.904;4.696;2023-06-19T06:23:29;13.30;;;7.35;;
8857;SDS011;4465;50.904;4.696;2023-06-19T06:25:55;13.68;;;8.18;;
8857;SDS011;4465;50.904;4.696;2023-06-19T06:28:26;13.55;;;7.47;;
8857;SDS011;4465;50.904;4.696;2023-06-19T06:30:55;13.57;;;8.05;;
8857;SDS011;4465;50.904;4.696;2023-06-19T06:33:23;15.30;;;7.70;;
8857;SDS011;4465;50.904;4.696;2023-06-19T06:35:50;15.55;;;7.88;;
8857;SDS011;4465;50.904;4.696;2023-06-19T06:38:21;15.27;;;8.10;;
8857;SDS011;4465;50.904;4.696;2023-06-19T06:40:47;16.20;;;7.70;;
8857;SDS011;4465;50.904;4.696;2023-06-19T06:43:13;12.48;;;8.02;;
8857;SDS011;4465;50.904;4.696;2023-06-19T06:45:39;13.52;;;7.53;;
8857;SDS011;4465;50.904;4.696;2023-06-19T06:48:09;16.85;;;8.75;;
8857;SDS011;4465;50.904;4.696;2023-06-19T06:50:35;12.98;;;7.47;;
8857;SDS011;4465;50.904;4.696;2023-06-19T06:53:04;14.02;;;7.93;;
8857;SDS011;4465;50.904;4.696;2023-06-19T06:55:32;20.20;;;8.25;;
8857;SDS011;4465;50.904;4.696;2023-06-19T06:57:58;14.25;;;7.95;;
8857;SDS011;4465;50.904;4.696;2023-06-19T07:00:24;13.38;;;8.07;;
8857;SDS011;4465;50.904;4.696;2023-06-19T07:02:50;14.02;;;8.43;;
8857;SDS011;4465;50.904;4.696;2023-06-19T07:05:16;18.13;;;8.48;;
8857;SDS011;4465;50.904;4.696;2023-06-19T07:07:42;16.52;;;8.60;;
8857;SDS011;4465;50.904;4.696;2023-06-19T07:10:08;16.00;;;9.10;;
8857;SDS011;4465;50.904;4.696;2023-06-19T07:12:34;15.00;;;8.30;;
8857;SDS011;4465;50.904;4.696;2023-06-19T07:15:06;15.43;;;9.00;;
8857;SDS011;4465;50.904;4.696;2023-06-19T07:17:34;12.80;;;8.13;;
8857;SDS011;4465;50.904;4.696;2023-06-19T07:20:03;15.05;;;7.80;;
8857;SDS011;4465;50.904;4.696;2023-06-19T07:22:32;11.50;;;7.60;;
8857;SDS011;4465;50.904;4.696;2023-06-19T07:24:58;10.82;;;7.82;;
8857;SDS011;4465;50.904;4.696;2023-06-19T07:27:24;13.65;;;8.10;;
8857;SDS011;4465;50.904;4.696;2023-06-19T07:29:53;15.63;;;8.30;;
8857;SDS011;4465;50.904;4.696;2023-06-19T07:32:18;15.00;;;8.77;;
8857;SDS011;4465;50.904;4.696;2023-06-19T07:34:45;13.32;;;7.88;;
8857;SDS011;4465;50.904;4.696;2023-06-19T07:37:13;12.80;;;7.25;;
8857;SDS011;4465;50.904;4.696;2023-06-19T07:39:46;18.17;;;8.32;;
8857;SDS011;4465;50.904;4.696;2023-06-19T07:42:13;13.63;;;8.75;;
8857;SDS011;4465;50.904;4.696;2023-06-19T07:44:40;17.45;;;8.45;;
8857;SDS011;4465;50.904;4.696;2023-06-19T07:47:06;12.88;;;7.82;;
8857;SDS011;4465;50.904;4.696;2023-06-19T07:49:33;11.65;;;7.35;;
8857;SDS011;4465;50.904;4.696;2023-06-19T07:51:59;18.50;;;8.93;;
8857;SDS011;4465;50.904;4.696;2023-06-19T07:54:28;18.65;;;8.27;;
8857;SDS011;4465;50.904;4.696;2023-06-19T07:56:53;18.52;;;8.57;;
8857;SDS011;4465;50.904;4.696;2023-06-19T07:59:22;12.73;;;7.88;;
8857;SDS011;4465;50.904;4.696;2023-06-19T08:01:48;17.73;;;7.80;;
8857;SDS011;4465;50.904;4.696;2023-06-19T08:04:14;14.07;;;8.40;;
8857;SDS011;4465;50.904;4.696;2023-06-19T08:06:40;14.68;;;8.15;;
8857;SDS011;4465;50.904;4.696;2023-06-19T08:09:08;18.27;;;8.05;;
8857;SDS011;4465;50.904;4.696;2023-06-19T08:11:36;14.48;;;7.97;;
8857;SDS011;4465;50.904;4.696;2023-06-19T08:14:05;13.88;;;7.72;;
8857;SDS011;4465;50.904;4.696;2023-06-19T08:16:33;13.60;;;8.05;;
8857;SDS011;4465;50.904;4.696;2023-06-19T08:18:59;11.70;;;7.50;;
8857;SDS011;4465;50.904;4.696;2023-06-19T08:21:25;15.32;;;8.10;;
8857;SDS011;4465;50.904;4.696;2023-06-19T08:23:51;11.55;;;7.35;;
8857;SDS011;4465;50.904;4.696;2023-06-19T08:26:17;14.35;;;7.60;;
8857;SDS011;4465;50.904;4.696;2023-06-19T08:28:43;16.17;;;7.72;;
8857;SDS011;4465;50.904;4.696;2023-06-19T08:31:10;12.73;;;7.20;;
8857;SDS011;4465;50.904;4.696;2023-06-19T08:33:36;10.52;;;6.93;;
8857;SDS011;4465;50.904;4.696;2023-06-19T08:36:02;14.20;;;6.95;;
8857;SDS011;4465;50.904;4.696;2023-06-19T08:38:30;11.57;;;7.38;;
8857;SDS011;4465;50.904;4.696;2023-06-19T08:40:56;14.25;;;7.72;;
8857;SDS011;4465;50.904;4.696;2023-06-19T08:43:24;16.38;;;6.97;;
8857;SDS011;4465;50.904;4.696;2023-06-19T08:45:55;10.85;;;6.82;;
8857;SDS011;4465;50.904;4.696;2023-06-19T08:48:43;13.30;;;7.95;;
8857;SDS011;4465;50.904;4.696;2023-06-19T08:51:09;12.50;;;6.70;;
8857;SDS011;4465;50.904;4.696;2023-06-19T08:53:37;14.73;;;7.28;;
8857;SDS011;4465;50.904;4.696;2023-06-19T08:56:19;12.98;;;6.88;;
8857;SDS011;4465;50.904;4.696;2023-06-19T08:58:45;13.35;;;7.65;;
8857;SDS011;4465;50.904;4.696;2023-06-19T09:01:18;12.93;;;6.93;;
8857;SDS011;4465;50.904;4.696;2023-06-19T09:03:45;13.13;;;7.03;;
8857;SDS011;4465;50.904;4.696;2023-06-19T09:06:14;12.35;;;6.97;;
8857;SDS011;4465;50.904;4.696;2023-06-19T09:08:44;12.85;;;6.95;;
8857;SDS011;4465;50.904;4.696;2023-06-19T09:11:22;17.15;;;7.25;;
8857;SDS011;4465;50.904;4.696;2023-06-19T09:13:55;13.48;;;7.00;;
8857;SDS011;4465;50.904;4.696;2023-06-19T09:16:26;12.00;;;7.00;;
8857;SDS011;4465;50.904;4.696;2023-06-19T09:19:03;17.00;;;7.90;;
8857;SDS011;4465;50.904;4.696;2023-06-19T09:21:29;11.25;;;7.00;;
8857;SDS011;4465;50.904;4.696;2023-06-19T09:24:06;12.88;;;7.30;;
8857;SDS011;4465;50.904;4.696;2023-06-19T09:26:36;13.55;;;8.02;;
8857;SDS011;4465;50.904;4.696;2023-06-19T09:29:14;11.50;;;7.53;;
8857;SDS011;4465;50.904;4.696;2023-06-19T09:31:44;13.63;;;7.90;;
8857;SDS011;4465;50.904;4.696;2023-06-19T09:34:10;11.45;;;7.32;;
8857;SDS011;4465;50.904;4.696;2023-06-19T09:36:38;15.55;;;8.40;;
8857;SDS011;4465;50.904;4.696;2023-06-19T09:41:34;13.35;;;7.68;;
8857;SDS011;4465;50.904;4.696;2023-06-19T09:44:01;12.85;;;7.53;;
8857;SDS011;4465;50.904;4.696;2023-06-19T09:46:30;11.80;;;7.53;;
8857;SDS011;4465;50.904;4.696;2023-06-19T09:49:01;13.70;;;7.45;;
8857;SDS011;4465;50.904;4.696;2023-06-19T09:51:29;12.82;;;7.30;;
8857;SDS011;4465;50.904;4.696;2023-06-19T09:53:58;13.80;;;6.95;;
8857;SDS011;4465;50.904;4.696;2023-06-19T09:56:26;14.93;;;7.28;;
8857;SDS011;4465;50.904;4.696;2023-06-19T09:58:56;11.30;;;6.70;;
8857;SDS011;4465;50.904;4.696;2023-06-19T10:04:02;13.40;;;7.88;;
8857;SDS011;4465;50.904;4.696;2023-06-19T10:06:32;12.73;;;8.10;;
8857;SDS011;4465;50.904;4.696;2023-06-19T10:09:08;26.38;;;8.35;;
8857;SDS011;4465;50.904;4.696;2023-06-19T10:11:47;10.60;;;7.10;;
8857;SDS011;4465;50.904;4.696;2023-06-19T10:14:20;13.52;;;6.53;;
8857;SDS011;4465;50.904;4.696;2023-06-19T10:16:50;11.90;;;7.00;;
8857;SDS011;4465;50.904;4.696;2023-06-19T10:19:17;15.77;;;7.35;;
8857;SDS011;4465;50.904;4.696;2023-06-19T10:21:46;15.15;;;7.32;;
8857;SDS011;4465;50.904;4.696;2023-06-19T10:24:18;12.88;;;8.10;;
8857;SDS011;4465;50.904;4.696;2023-06-19T10:29:24;14.95;;;8.10;;
8857;SDS011;4465;50.904;4.696;2023-06-19T10:32:02;12.80;;;7.13;;
8857;SDS011;4465;50.904;4.696;2023-06-19T10:34:35;13.30;;;7.32;;
8857;SDS011;4465;50.904;4.696;2023-06-19T10:37:03;16.73;;;7.50;;
8857;SDS011;4465;50.904;4.696;2023-06-19T10:39:30;14.55;;;8.15;;
8857;SDS011;4465;50.904;4.696;2023-06-19T10:41:58;18.95;;;8.52;;
8857;SDS011;4465;50.904;4.696;2023-06-19T10:44:24;18.02;;;9.50;;
8857;SDS011;4465;50.904;4.696;2023-06-19T10:46:52;16.33;;;8.27;;
8857;SDS011;4465;50.904;4.696;2023-06-19T10:49:18;16.52;;;8.75;;
8857;SDS011;4465;50.904;4.696;2023-06-19T10:51:48;17.45;;;8.30;;
8857;SDS011;4465;50.904;4.696;2023-06-19T10:54:16;13.05;;;8.00;;
8857;SDS011;4465;50.904;4.696;2023-06-19T10:56:44;14.77;;;8.07;;
8857;SDS011;4465;50.904;4.696;2023-06-19T10:59:13;16.08;;;7.72;;
8857;SDS011;4465;50.904;4.696;2023-06-19T11:01:46;13.57;;;6.75;;
8857;SDS011;4465;50.904;4.696;2023-06-19T11:04:14;13.85;;;7.05;;
8857;SDS011;4465;50.904;4.696;2023-06-19T11:06:41;9.75;;;6.00;;
8857;SDS011;4465;50.904;4.696;2023-06-19T11:09:11;11.55;;;6.30;;
8857;SDS011;4465;50.904;4.696;2023-06-19T11:14:06;13.93;;;5.45;;
8857;SDS011;4465;50.904;4.696;2023-06-19T11:16:38;11.40;;;5.88;;
8857;SDS011;4465;50.904;4.696;2023-06-19T11:19:07;9.35;;;5.55;;
8857;SDS011;4465;50.904;4.696;2023-06-19T11:21:40;11.07;;;5.28;;
8857;SDS011;4465;50.904;4.696;2023-06-19T11:24:10;11.43;;;5.50;;
8857;SDS011;4465;50.904;4.696;2023-06-19T11:26:38;9.20;;;5.20;;
8857;SDS011;4465;50.904;4.696;2023-06-19T11:29:22;9.23;;;4.68;;
8857;SDS011;4465;50.904;4.696;2023-06-19T11:31:50;9.55;;;4.80;;
8857;SDS011;4465;50.904;4.696;2023-06-19T11:34:19;8.65;;;5.03;;
8857;SDS011;4465;50.904;4.696;2023-06-19T11:36:47;10.05;;;4.97;;
8857;SDS011;4465;50.904;4.696;2023-06-19T11:39:14;12.43;;;4.82;;
8857;SDS011;4465;50.904;4.696;2023-06-19T11:41:43;12.23;;;5.18;;
8857;SDS011;4465;50.904;4.696;2023-06-19T11:44:12;9.85;;;5.03;;
8857;SDS011;4465;50.904;4.696;2023-06-19T11:46:38;10.57;;;4.68;;
8857;SDS011;4465;50.904;4.696;2023-06-19T11:54:08;8.88;;;5.05;;
8857;SDS011;4465;50.904;4.696;2023-06-19T11:56:35;9.48;;;4.95;;
8857;SDS011;4465;50.904;4.696;2023-06-19T11:59:04;7.93;;;4.75;;
8857;SDS011;4465;50.904;4.696;2023-06-19T12:01:32;10.65;;;4.57;;
8857;SDS011;4465;50.904;4.696;2023-06-19T12:04:00;6.68;;;4.40;;
8857;SDS011;4465;50.904;4.696;2023-06-19T12:06:26;9.35;;;4.88;;
8857;SDS011;4465;50.904;4.696;2023-06-19T12:08:53;7.70;;;5.03;;
8857;SDS011;4465;50.904;4.696;2023-06-19T12:11:19;9.48;;;4.95;;
8857;SDS011;4465;50.904;4.696;2023-06-19T12:13:45;9.13;;;4.83;;
8857;SDS011;4465;50.904;4.696;2023-06-19T12:16:11;9.68;;;5.00;;
8857;SDS011;4465;50.904;4.696;2023-06-19T12:18:38;9.93;;;4.72;;
8857;SDS011;4465;50.904;4.696;2023-06-19T12:21:06;7.95;;;4.47;;
8857;SDS011;4465;50.904;4.696;2023-06-19T12:23:32;8.30;;;4.90;;
8857;SDS011;4465;50.904;4.696;2023-06-19T12:25:58;9.35;;;4.68;;
8857;SDS011;4465;50.904;4.696;2023-06-19T12:28:25;9.88;;;4.60;;
8857;SDS011;4465;50.904;4.696;2023-06-19T12:30:52;10.23;;;4.80;;
8857;SDS011;4465;50.904;4.696;2023-06-19T12:33:19;10.35;;;4.68;;
8857;SDS011;4465;50.904;4.696;2023-06-19T12:35:50;8.80;;;5.05;;
8857;SDS011;4465;50.904;4.696;2023-06-19T12:38:19;9.10;;;4.78;;
8857;SDS011;4465;50.904;4.696;2023-06-19T12:40:45;9.43;;;4.70;;
8857;SDS011;4465;50.904;4.696;2023-06-19T12:43:11;8.38;;;4.38;;
8857;SDS011;4465;50.904;4.696;2023-06-19T12:45:36;7.82;;;4.25;;
8857;SDS011;4465;50.904;4.696;2023-06-19T12:48:02;7.60;;;4.70;;
8857;SDS011;4465;50.904;4.696;2023-06-19T12:50:31;11.45;;;4.63;;
8857;SDS011;4465;50.904;4.696;2023-06-19T12:52:59;7.18;;;4.53;;
8857;SDS011;4465;50.904;4.696;2023-06-19T12:55:25;8.35;;;4.38;;
8857;SDS011;4465;50.904;4.696;2023-06-19T12:57:51;7.47;;;4.28;;
8857;SDS011;4465;50.904;4.696;2023-06-19T13:00:19;7.63;;;4.45;;
8857;SDS011;4465;50.904;4.696;2023-06-19T13:02:47;7.35;;;3.97;;
8857;SDS011;4465;50.904;4.696;2023-06-19T13:05:13;6.07;;;4.05;;
8857;SDS011;4465;50.904;4.696;2023-06-19T13:07:39;8.20;;;4.40;;
8857;SDS011;4465;50.904;4.696;2023-06-19T13:10:05;6.70;;;3.80;;
8857;SDS011;4465;50.904;4.696;2023-06-19T13:12:32;6.88;;;4.35;;
8857;SDS011;4465;50.904;4.696;2023-06-19T13:14:58;7.30;;;3.60;;
8857;SDS011;4465;50.904;4.696;2023-06-19T13:17:24;9.02;;;4.70;;
8857;SDS011;4465;50.904;4.696;2023-06-19T13:19:50;6.18;;;4.18;;
8857;SDS011;4465;50.904;4.696;2023-06-19T13:22:16;6.47;;;3.75;;
8857;SDS011;4465;50.904;4.696;2023-06-19T13:24:42;7.13;;;3.90;;
8857;SDS011;4465;50.904;4.696;2023-06-19T13:27:08;7.18;;;3.78;;
8857;SDS011;4465;50.904;4.696;2023-06-19T13:29:34;6.57;;;3.75;;
8857;SDS011;4465;50.904;4.696;2023-06-19T13:32:05;7.75;;;3.95;;
8857;SDS011;4465;50.904;4.696;2023-06-19T13:34:33;6.40;;;3.80;;
8857;SDS011;4465;50.904;4.696;2023-06-19T13:36:59;8.02;;;4.22;;
8857;SDS011;4465;50.904;4.696;2023-06-19T13:39:25;8.18;;;4.20;;
8857;SDS011;4465;50.904;4.696;2023-06-19T13:41:51;11.13;;;4.63;;
8857;SDS011;4465;50.904;4.696;2023-06-19T13:44:17;8.27;;;4.15;;
8857;SDS011;4465;50.904;4.696;2023-06-19T13:46:44;7.53;;;4.55;;
8857;SDS011;4465;50.904;4.696;2023-06-19T13:49:12;6.65;;;3.95;;
8857;SDS011;4465;50.904;4.696;2023-06-19T13:51:41;7.60;;;4.28;;
8857;SDS011;4465;50.904;4.696;2023-06-19T13:54:09;11.48;;;4.38;;
8857;SDS011;4465;50.904;4.696;2023-06-19T13:56:35;5.68;;;3.47;;
8857;SDS011;4465;50.904;4.696;2023-06-19T13:59:03;5.53;;;3.38;;
8857;SDS011;4465;50.904;4.696;2023-06-19T14:01:29;5.32;;;3.50;;
8857;SDS011;4465;50.904;4.696;2023-06-19T14:03:57;7.72;;;3.65;;
8857;SDS011;4465;50.904;4.696;2023-06-19T14:06:24;3.92;;;2.55;;
8857;SDS011;4465;50.904;4.696;2023-06-19T14:08:50;6.93;;;4.15;;
8857;SDS011;4465;50.904;4.696;2023-06-19T14:11:17;5.87;;;3.60;;
8857;SDS011;4465;50.904;4.696;2023-06-19T14:13:44;6.88;;;4.10;;
8857;SDS011;4465;50.904;4.696;2023-06-19T14:16:13;8.50;;;3.97;;
8857;SDS011;4465;50.904;4.696;2023-06-19T14:18:39;6.90;;;3.90;;
8857;SDS011;4465;50.904;4.696;2023-06-19T14:21:04;7.10;;;3.67;;
8857;SDS011;4465;50.904;4.696;2023-06-19T14:23:31;9.25;;;4.10;;
8857;SDS011;4465;50.904;4.696;2023-06-19T14:25:59;7.75;;;3.78;;
8857;SDS011;4465;50.904;4.696;2023-06-19T14:28:27;9.57;;;4.05;;
8857;SDS011;4465;50.904;4.696;2023-06-19T14:30:53;5.65;;;3.70;;
8857;SDS011;4465;50.904;4.696;2023-06-19T14:33:19;5.15;;;3.42;;
8857;SDS011;4465;50.904;4.696;2023-06-19T14:35:45;7.95;;;3.78;;
8857;SDS011;4465;50.904;4.696;2023-06-19T14:38:14;7.03;;;3.78;;
8857;SDS011;4465;50.904;4.696;2023-06-19T14:40:44;9.40;;;3.97;;
8857;SDS011;4465;50.904;4.696;2023-06-19T14:43:10;5.47;;;3.65;;
8857;SDS011;4465;50.904;4.696;2023-06-19T14:45:35;6.03;;;3.83;;
8857;SDS011;4465;50.904;4.696;2023-06-19T14:48:05;10.45;;;4.00;;
8857;SDS011;4465;50.904;4.696;2023-06-19T14:50:31;13.55;;;4.43;;
8857;SDS011;4465;50.904;4.696;2023-06-19T14:52:58;6.75;;;3.75;;
8857;SDS011;4465;50.904;4.696;2023-06-19T14:55:24;7.07;;;4.05;;
8857;SDS011;4465;50.904;4.696;2023-06-19T14:57:52;9.07;;;3.78;;
8857;SDS011;4465;50.904;4.696;2023-06-19T15:00:18;7.50;;;4.15;;
8857;SDS011;4465;50.904;4.696;2023-06-19T15:02:44;6.22;;;3.40;;
8857;SDS011;4465;50.904;4.696;2023-06-19T15:05:10;7.45;;;3.53;;
8857;SDS011;4465;50.904;4.696;2023-06-19T15:07:36;7.63;;;4.13;;
8857;SDS011;4465;50.904;4.696;2023-06-19T15:10:03;7.78;;;3.60;;
8857;SDS011;4465;50.904;4.696;2023-06-19T15:12:32;8.98;;;3.97;;
8857;SDS011;4465;50.904;4.696;2023-06-19T15:15:00;6.45;;;3.72;;
8857;SDS011;4465;50.904;4.696;2023-06-19T15:17:26;7.00;;;3.50;;
8857;SDS011;4465;50.904;4.696;2023-06-19T15:19:54;7.68;;;3.60;;
8857;SDS011;4465;50.904;4.696;2023-06-19T15:22:20;7.40;;;3.45;;
8857;SDS011;4465;50.904;4.696;2023-06-19T15:24:46;6.30;;;3.50;;
8857;SDS011;4465;50.904;4.696;2023-06-19T15:27:12;5.95;;;3.45;;
8857;SDS011;4465;50.904;4.696;2023-06-19T15:29:38;7.05;;;3.40;;
8857;SDS011;4465;50.904;4.696;2023-06-19T15:32:06;6.28;;;3.53;;
8857;SDS011;4465;50.904;4.696;2023-06-19T15:34:32;6.80;;;3.72;;
8857;SDS011;4465;50.904;4.696;2023-06-19T15:36:58;6.75;;;3.90;;
8857;SDS011;4465;50.904;4.696;2023-06-19T15:39:24;7.10;;;3.45;;
8857;SDS011;4465;50.904;4.696;2023-06-19T15:41:53;6.75;;;3.60;;